createdAt,value
2023-04-28T00:01:59.147Z,100144
2023-04-28T00:08:10.040Z,100144
2023-04-28T00:14:02.201Z,100148
2023-04-28T00:26:46.881Z,100130
2023-04-28T00:32:42.734Z,100115
2023-04-28T00:38:35.718Z,100108
2023-04-28T00:44:29.024Z,100091
2023-04-28T00:50:20.974Z,100093
2023-04-28T00:56:11.983Z,100094
2023-04-28T01:02:03.537Z,100081
2023-04-28T01:07:55.390Z,100068
2023-04-28T01:13:47.170Z,100054
2023-04-28T01:19:40.168Z,100044
2023-04-28T01:25:33.397Z,100046
2023-04-28T01:31:25.588Z,100051
2023-04-28T01:37:17.038Z,100056
2023-04-28T01:43:08.926Z,100058
2023-04-28T01:49:01.479Z,100049
2023-04-28T01:54:52.403Z,100043
2023-04-28T02:00:42.997Z,100048
2023-04-28T02:06:33.907Z,100038
2023-04-28T02:12:24.551Z,100037
2023-04-28T02:18:15.600Z,100036
2023-04-28T02:24:07.232Z,100030
2023-04-28T02:29:56.369Z,100022
2023-04-28T02:35:46.167Z,100022
2023-04-28T02:41:38.478Z,100017
2023-04-28T02:47:30.692Z,100007
2023-04-28T02:54:31.094Z,99999
2023-04-28T03:00:23.036Z,99992
2023-04-28T03:06:15.428Z,99985
2023-04-28T03:12:07.176Z,99999
2023-04-28T03:17:59.931Z,99998
2023-04-28T03:23:52.859Z,99991
2023-04-28T03:29:44.631Z,99976
2023-04-28T03:35:37.334Z,99967
2023-04-28T03:41:29.728Z,99951
2023-04-28T03:47:21.632Z,99949
2023-04-28T03:53:13.606Z,99946
2023-04-28T03:59:06.326Z,99941
2023-04-28T04:04:57.346Z,99924
2023-04-28T04:10:49.163Z,99928
2023-04-28T04:16:41.154Z,99930
2023-04-28T04:22:33.696Z,99916
2023-04-28T04:28:25.156Z,99904
2023-04-28T04:34:15.755Z,99904
2023-04-28T04:40:08.325Z,99904
2023-04-28T04:46:00.193Z,99898
2023-04-28T04:51:51.959Z,99900
2023-04-28T04:57:43.873Z,99896
2023-04-28T05:03:35.880Z,99894
2023-04-28T05:09:27.823Z,99911
2023-04-28T05:15:19.659Z,99925
2023-04-28T05:21:12.596Z,99933
2023-04-28T05:27:03.164Z,99933
2023-04-28T05:32:53.405Z,99923
2023-04-28T05:38:45.251Z,99929
2023-04-28T05:44:35.985Z,99922
2023-04-28T05:50:28.933Z,99913
2023-04-28T05:56:21.320Z,99925
2023-04-28T06:02:11.441Z,99917
2023-04-28T06:08:02.301Z,99901
2023-04-28T06:13:53.136Z,99896
2023-04-28T06:19:45.217Z,99877
2023-04-28T06:25:36.359Z,99880
2023-04-28T06:31:27.330Z,99880
2023-04-28T06:37:18.398Z,99900
2023-04-28T06:43:10.443Z,99890
2023-04-28T06:49:03.871Z,99895
2023-04-28T06:54:57.280Z,99900
2023-04-28T07:00:48.838Z,99904
2023-04-28T07:06:46.275Z,99900
2023-04-28T07:12:40.679Z,99914
2023-04-28T07:18:35.490Z,99913
2023-04-28T07:24:29.004Z,99921
2023-04-28T07:30:32.466Z,99915
2023-04-28T07:36:24.977Z,99913
2023-04-28T07:42:19.155Z,99918
2023-04-28T07:48:12.756Z,99922
2023-04-28T07:54:06.223Z,99908
2023-04-28T07:59:59.378Z,99921
2023-04-28T08:05:52.167Z,99914
2023-04-28T08:11:45.244Z,99907
2023-04-28T08:17:37.356Z,99919
2023-04-28T08:23:30.254Z,99913
2023-04-28T08:29:22.368Z,99916
2023-04-28T08:35:14.870Z,99924
2023-04-28T08:41:07.024Z,99922
2023-04-28T08:46:58.708Z,99923
2023-04-28T08:52:51.332Z,99927
2023-04-28T08:58:42.736Z,99925
2023-04-28T09:04:34.439Z,99930
2023-04-28T09:10:28.085Z,99944
2023-04-28T09:16:20.344Z,99943
2023-04-28T09:22:30.710Z,99938
2023-04-28T09:28:36.147Z,99921
2023-04-28T09:34:28.138Z,99922
2023-04-28T09:40:20.087Z,99904
2023-04-28T09:46:11.562Z,99904
2023-04-28T09:52:04.016Z,99901
2023-04-28T09:57:57.220Z,99901
2023-04-28T10:03:51.117Z,99898
2023-04-28T10:09:45.823Z,99903
2023-04-28T10:15:36.670Z,99902
2023-04-28T10:21:28.876Z,99891
2023-04-28T10:27:20.383Z,99890
2023-04-28T10:33:12.690Z,99889
2023-04-28T10:39:07.874Z,99880
2023-04-28T10:45:01.123Z,99879
2023-04-28T10:50:54.745Z,99871
2023-04-28T10:56:47.718Z,99872
2023-04-28T11:02:41.811Z,99861
2023-04-28T11:08:37.103Z,99864
2023-04-28T11:14:28.245Z,99854
2023-04-28T11:20:21.380Z,99858
2023-04-28T11:26:13.792Z,99859
2023-04-28T11:32:07.022Z,99859
2023-04-28T11:37:58.917Z,99860
2023-04-28T11:43:51.428Z,99854
2023-04-28T11:49:43.446Z,99853
2023-04-28T11:55:36.881Z,99855
2023-04-28T12:01:29.152Z,99849
2023-04-28T12:07:22.065Z,99849
2023-04-28T12:13:13.813Z,99855
2023-04-28T12:19:06.697Z,99836
2023-04-28T12:24:58.776Z,99818
2023-04-28T12:30:51.111Z,99827
2023-04-28T12:36:47.550Z,99823
2023-04-28T12:42:38.451Z,99825
2023-04-28T12:48:30.213Z,99820
2023-04-28T12:54:20.927Z,99813
2023-04-28T13:00:13.382Z,99815
2023-04-28T13:06:04.127Z,99818
2023-04-28T13:11:56.948Z,99810
2023-04-28T13:17:48.820Z,99795
2023-04-28T13:23:42.062Z,99781
2023-04-28T13:29:34.630Z,99766
2023-04-28T13:35:29.540Z,99761
2023-04-28T13:41:22.437Z,99763
2023-04-28T13:47:15.737Z,99763
2023-04-28T13:53:07.990Z,99733
2023-04-28T13:59:00.399Z,99742
2023-04-28T14:04:54.689Z,99759
2023-04-28T14:10:47.678Z,99750
2023-04-28T14:16:39.191Z,99748
2023-04-28T14:22:31.458Z,99748
2023-04-28T14:28:23.507Z,99729
2023-04-28T14:34:16.131Z,99725
2023-04-28T14:40:08.274Z,99724
2023-04-28T14:46:01.102Z,99737
2023-04-28T14:51:53.633Z,99727
2023-04-28T14:57:45.952Z,99705
2023-04-28T15:03:38.995Z,99729
2023-04-28T15:09:31.540Z,99737
2023-04-28T15:15:23.809Z,99736
2023-04-28T15:21:15.899Z,99740
2023-04-28T15:27:07.789Z,99733
2023-04-28T15:33:00.281Z,99741
2023-04-28T15:38:52.205Z,99746
2023-04-28T15:44:44.341Z,99748
2023-04-28T15:50:37.147Z,99758
2023-04-28T15:56:29.111Z,99780
2023-04-28T16:02:22.275Z,99780
2023-04-28T16:08:14.620Z,99802
2023-04-28T16:14:07.060Z,99782
2023-04-28T16:19:59.541Z,99795
2023-04-28T16:25:51.580Z,99804
2023-04-28T16:31:44.553Z,99817
2023-04-28T16:37:36.624Z,99831
2023-04-28T16:43:34.351Z,99835
2023-04-28T16:49:25.930Z,99840
2023-04-28T16:55:17.856Z,99856
2023-04-28T17:01:16.942Z,99877
2023-04-28T17:07:28.709Z,99883
2023-04-28T17:13:29.539Z,99905
2023-04-28T17:19:38.242Z,99933
2023-04-28T17:25:45.940Z,99930
2023-04-28T17:31:49.401Z,99938
2023-04-28T17:38:01.388Z,99938
2023-04-28T17:44:08.940Z,99948
2023-04-28T17:50:11.872Z,99954
2023-04-28T17:56:05.400Z,99966
2023-04-28T18:01:56.625Z,99966
2023-04-28T18:07:50.712Z,99975
2023-04-28T18:13:42.460Z,99981
2023-04-28T18:19:35.510Z,99988
2023-04-28T18:25:32.158Z,99983
2023-04-28T18:31:46.613Z,99995
2023-04-28T18:37:50.761Z,99997
2023-04-28T18:43:51.393Z,99999
2023-04-28T18:49:47.928Z,100005
2023-04-28T18:56:52.684Z,99994
2023-04-28T19:02:43.714Z,100001
2023-04-28T19:14:29.702Z,100020
2023-04-28T19:20:27.466Z,100024
2023-04-28T19:26:19.420Z,100037
2023-04-28T19:32:11.619Z,100036
2023-04-28T19:38:02.856Z,100044
2023-04-28T19:43:55.325Z,100045
2023-04-28T19:49:53.426Z,100046
2023-04-28T19:55:44.772Z,100059
2023-04-28T20:01:38.626Z,100058
2023-04-28T20:07:31.065Z,100055
2023-04-28T20:13:22.837Z,100047
2023-04-28T20:19:25.914Z,100058
2023-04-28T20:25:20.316Z,100065
2023-04-28T20:31:12.564Z,100065
2023-04-28T20:37:05.732Z,100070
2023-04-28T20:42:58.264Z,100067
2023-04-28T20:48:50.784Z,100059
2023-04-28T20:54:43.210Z,100065
2023-04-28T21:00:34.873Z,100069
2023-04-28T21:06:32.713Z,100070
2023-04-28T21:12:55.887Z,100064
2023-04-28T21:26:24.930Z,100071
2023-04-28T21:32:26.665Z,100090
2023-04-28T21:39:00.814Z,100081
2023-04-28T21:44:56.986Z,100085
2023-04-28T21:50:53.280Z,100081
2023-04-28T21:56:48.972Z,100081
2023-04-28T22:02:44.722Z,100088
2023-04-28T22:08:52.869Z,100078
2023-04-28T22:14:45.165Z,100082
2023-04-28T22:20:36.839Z,100094
2023-04-28T22:26:45.413Z,100097
2023-04-28T23:03:58.280Z,100109
2023-04-28T23:09:54.811Z,100113
2023-04-28T23:15:46.000Z,100107
2023-04-28T23:21:38.834Z,100106
2023-04-28T23:27:31.488Z,100107
2023-04-28T23:33:23.674Z,100110
2023-04-28T23:39:15.106Z,100113
2023-04-28T23:45:07.354Z,100128
2023-04-28T23:50:58.869Z,100135
2023-04-28T23:56:51.120Z,100130
